sensor_id;sensor_type;location;lat;lon;timestamp;P1;durP1;ratioP1;P2;durP2;ratioP2
45784;SDS011;31489;51.404;5.474;2023-07-30T00:02:18;7.97;;;2.50;;
45784;SDS011;31489;51.404;5.474;2023-07-30T00:04:44;6.40;;;2.33;;
45784;SDS011;31489;51.404;5.474;2023-07-30T00:07:11;5.20;;;2.00;;
45784;SDS011;31489;51.404;5.474;2023-07-30T00:09:37;5.95;;;2.22;;
45784;SDS011;31489;51.404;5.474;2023-07-30T00:12:07;4.82;;;2.08;;
45784;SDS011;31489;51.404;5.474;2023-07-30T00:14:33;7.63;;;2.17;;
45784;SDS011;31489;51.404;5.474;2023-07-30T00:17:00;7.82;;;2.15;;
45784;SDS011;31489;51.404;5.474;2023-07-30T00:19:26;6.20;;;2.45;;
45784;SDS011;31489;51.404;5.474;2023-07-30T00:21:52;7.80;;;2.50;;
45784;SDS011;31489;51.404;5.474;2023-07-30T00:24:17;6.50;;;2.30;;
45784;SDS011;31489;51.404;5.474;2023-07-30T00:26:43;13.65;;;6.45;;
45784;SDS011;31489;51.404;5.474;2023-07-30T00:29:09;7.70;;;3.28;;
45784;SDS011;31489;51.404;5.474;2023-07-30T00:31:34;7.82;;;3.15;;
45784;SDS011;31489;51.404;5.474;2023-07-30T00:34:00;9.13;;;2.75;;
45784;SDS011;31489;51.404;5.474;2023-07-30T00:36:26;5.88;;;2.58;;
45784;SDS011;31489;51.404;5.474;2023-07-30T00:38:52;5.50;;;2.60;;
45784;SDS011;31489;51.404;5.474;2023-07-30T00:41:17;7.78;;;2.53;;
45784;SDS011;31489;51.404;5.474;2023-07-30T00:43:43;12.15;;;3.15;;
45784;SDS011;31489;51.404;5.474;2023-07-30T00:46:08;6.45;;;2.17;;
45784;SDS011;31489;51.404;5.474;2023-07-30T00:48:35;5.72;;;2.40;;
45784;SDS011;31489;51.404;5.474;2023-07-30T00:51:01;5.22;;;2.00;;
45784;SDS011;31489;51.404;5.474;2023-07-30T00:53:28;5.13;;;2.15;;
45784;SDS011;31489;51.404;5.474;2023-07-30T00:55:54;5.13;;;2.28;;
45784;SDS011;31489;51.404;5.474;2023-07-30T00:58:20;6.72;;;2.08;;
45784;SDS011;31489;51.404;5.474;2023-07-30T01:00:46;8.45;;;2.35;;
45784;SDS011;31489;51.404;5.474;2023-07-30T01:03:12;8.25;;;2.45;;
45784;SDS011;31489;51.404;5.474;2023-07-30T01:05:38;5.63;;;2.20;;
45784;SDS011;31489;51.404;5.474;2023-07-30T01:08:04;7.50;;;2.50;;
45784;SDS011;31489;51.404;5.474;2023-07-30T01:10:30;6.03;;;2.30;;
45784;SDS011;31489;51.404;5.474;2023-07-30T01:12:59;9.90;;;2.20;;
45784;SDS011;31489;51.404;5.474;2023-07-30T01:15:28;8.00;;;2.75;;
45784;SDS011;31489;51.404;5.474;2023-07-30T01:17:54;9.38;;;2.58;;
45784;SDS011;31489;51.404;5.474;2023-07-30T01:20:20;8.52;;;2.40;;
45784;SDS011;31489;51.404;5.474;2023-07-30T01:22:47;6.22;;;2.70;;
45784;SDS011;31489;51.404;5.474;2023-07-30T01:25:13;4.32;;;2.25;;
45784;SDS011;31489;51.404;5.474;2023-07-30T01:27:40;7.72;;;2.55;;
45784;SDS011;31489;51.404;5.474;2023-07-30T01:32:51;9.48;;;2.55;;
45784;SDS011;31489;51.404;5.474;2023-07-30T01:35:18;5.75;;;2.15;;
45784;SDS011;31489;51.404;5.474;2023-07-30T01:37:50;6.88;;;2.40;;
45784;SDS011;31489;51.404;5.474;2023-07-30T01:40:17;7.35;;;2.13;;
45784;SDS011;31489;51.404;5.474;2023-07-30T01:42:43;6.85;;;2.60;;
45784;SDS011;31489;51.404;5.474;2023-07-30T01:45:09;8.80;;;2.45;;
45784;SDS011;31489;51.404;5.474;2023-07-30T01:47:34;7.80;;;2.65;;
45784;SDS011;31489;51.404;5.474;2023-07-30T01:50:00;8.10;;;2.38;;
45784;SDS011;31489;51.404;5.474;2023-07-30T01:52:26;7.35;;;2.47;;
45784;SDS011;31489;51.404;5.474;2023-07-30T01:54:52;8.60;;;2.47;;
45784;SDS011;31489;51.404;5.474;2023-07-30T01:57:17;9.55;;;2.72;;
45784;SDS011;31489;51.404;5.474;2023-07-30T01:59:43;5.35;;;2.28;;
45784;SDS011;31489;51.404;5.474;2023-07-30T02:02:08;6.05;;;2.50;;
45784;SDS011;31489;51.404;5.474;2023-07-30T02:04:34;11.52;;;2.70;;
45784;SDS011;31489;51.404;5.474;2023-07-30T02:07:00;8.02;;;2.45;;
45784;SDS011;31489;51.404;5.474;2023-07-30T02:09:25;9.35;;;2.40;;
45784;SDS011;31489;51.404;5.474;2023-07-30T02:11:51;10.10;;;2.70;;
45784;SDS011;31489;51.404;5.474;2023-07-30T02:14:20;6.93;;;2.53;;
45784;SDS011;31489;51.404;5.474;2023-07-30T02:16:45;7.13;;;2.53;;
45784;SDS011;31489;51.404;5.474;2023-07-30T02:19:11;6.93;;;2.55;;
45784;SDS011;31489;51.404;5.474;2023-07-30T02:21:37;5.57;;;2.42;;
45784;SDS011;31489;51.404;5.474;2023-07-30T02:24:07;7.40;;;2.65;;
45784;SDS011;31489;51.404;5.474;2023-07-30T02:26:35;11.68;;;2.50;;
45784;SDS011;31489;51.404;5.474;2023-07-30T02:29:01;6.55;;;2.53;;
45784;SDS011;31489;51.404;5.474;2023-07-30T02:31:26;7.53;;;2.28;;
45784;SDS011;31489;51.404;5.474;2023-07-30T02:33:52;16.05;;;2.80;;
45784;SDS011;31489;51.404;5.474;2023-07-30T02:36:18;6.75;;;2.58;;
45784;SDS011;31489;51.404;5.474;2023-07-30T02:38:44;6.97;;;2.72;;
45784;SDS011;31489;51.404;5.474;2023-07-30T02:41:09;6.80;;;2.28;;
45784;SDS011;31489;51.404;5.474;2023-07-30T02:43:35;10.60;;;3.03;;
45784;SDS011;31489;51.404;5.474;2023-07-30T02:46:00;9.73;;;2.72;;
45784;SDS011;31489;51.404;5.474;2023-07-30T02:48:26;13.85;;;4.13;;
45784;SDS011;31489;51.404;5.474;2023-07-30T02:50:52;10.45;;;2.83;;
45784;SDS011;31489;51.404;5.474;2023-07-30T02:53:17;9.45;;;2.67;;
45784;SDS011;31489;51.404;5.474;2023-07-30T02:55:43;8.50;;;2.92;;
45784;SDS011;31489;51.404;5.474;2023-07-30T02:58:09;7.03;;;2.53;;
45784;SDS011;31489;51.404;5.474;2023-07-30T03:00:34;8.48;;;2.58;;
45784;SDS011;31489;51.404;5.474;2023-07-30T03:03:00;7.75;;;2.30;;
45784;SDS011;31489;51.404;5.474;2023-07-30T03:05:26;10.63;;;2.67;;
45784;SDS011;31489;51.404;5.474;2023-07-30T03:07:52;11.73;;;2.90;;
45784;SDS011;31489;51.404;5.474;2023-07-30T03:10:18;9.75;;;2.90;;
45784;SDS011;31489;51.404;5.474;2023-07-30T03:12:44;5.88;;;2.33;;
45784;SDS011;31489;51.404;5.474;2023-07-30T03:15:09;10.43;;;2.67;;
45784;SDS011;31489;51.404;5.474;2023-07-30T03:17:35;9.27;;;2.42;;
45784;SDS011;31489;51.404;5.474;2023-07-30T03:20:01;9.68;;;2.78;;
45784;SDS011;31489;51.404;5.474;2023-07-30T03:22:28;10.38;;;2.58;;
45784;SDS011;31489;51.404;5.474;2023-07-30T03:24:53;8.65;;;2.60;;
45784;SDS011;31489;51.404;5.474;2023-07-30T03:27:19;13.48;;;2.63;;
45784;SDS011;31489;51.404;5.474;2023-07-30T03:29:44;13.00;;;2.70;;
45784;SDS011;31489;51.404;5.474;2023-07-30T03:32:10;8.30;;;2.30;;
45784;SDS011;31489;51.404;5.474;2023-07-30T03:34:36;12.73;;;2.78;;
45784;SDS011;31489;51.404;5.474;2023-07-30T03:37:01;8.70;;;2.60;;
45784;SDS011;31489;51.404;5.474;2023-07-30T03:39:27;12.43;;;2.63;;
45784;SDS011;31489;51.404;5.474;2023-07-30T03:41:53;9.18;;;2.63;;
45784;SDS011;31489;51.404;5.474;2023-07-30T03:44:18;11.60;;;2.80;;
45784;SDS011;31489;51.404;5.474;2023-07-30T03:46:44;8.65;;;2.55;;
45784;SDS011;31489;51.404;5.474;2023-07-30T03:49:11;12.55;;;2.50;;
45784;SDS011;31489;51.404;5.474;2023-07-30T03:51:36;10.80;;;3.33;;
45784;SDS011;31489;51.404;5.474;2023-07-30T03:54:03;13.18;;;3.15;;
45784;SDS011;31489;51.404;5.474;2023-07-30T03:56:29;15.68;;;2.92;;
45784;SDS011;31489;51.404;5.474;2023-07-30T03:58:55;9.25;;;2.90;;
45784;SDS011;31489;51.404;5.474;2023-07-30T04:01:21;13.50;;;3.05;;
45784;SDS011;31489;51.404;5.474;2023-07-30T04:03:46;11.02;;;3.58;;
45784;SDS011;31489;51.404;5.474;2023-07-30T04:06:12;11.60;;;3.38;;
45784;SDS011;31489;51.404;5.474;2023-07-30T04:08:38;11.60;;;3.58;;
45784;SDS011;31489;51.404;5.474;2023-07-30T04:11:03;13.68;;;3.58;;
45784;SDS011;31489;51.404;5.474;2023-07-30T04:13:29;9.88;;;3.08;;
45784;SDS011;31489;51.404;5.474;2023-07-30T04:15:55;11.65;;;3.08;;
45784;SDS011;31489;51.404;5.474;2023-07-30T04:18:20;13.27;;;3.90;;
45784;SDS011;31489;51.404;5.474;2023-07-30T04:20:47;13.80;;;4.25;;
45784;SDS011;31489;51.404;5.474;2023-07-30T04:23:13;12.60;;;3.70;;
45784;SDS011;31489;51.404;5.474;2023-07-30T04:25:39;9.43;;;4.28;;
45784;SDS011;31489;51.404;5.474;2023-07-30T04:28:05;17.02;;;3.70;;
45784;SDS011;31489;51.404;5.474;2023-07-30T04:30:30;17.27;;;4.65;;
45784;SDS011;31489;51.404;5.474;2023-07-30T04:32:57;13.70;;;3.83;;
45784;SDS011;31489;51.404;5.474;2023-07-30T04:35:22;10.05;;;3.63;;
45784;SDS011;31489;51.404;5.474;2023-07-30T04:37:48;12.07;;;3.55;;
45784;SDS011;31489;51.404;5.474;2023-07-30T04:40:14;13.10;;;3.15;;
45784;SDS011;31489;51.404;5.474;2023-07-30T04:42:39;14.65;;;3.83;;
45784;SDS011;31489;51.404;5.474;2023-07-30T04:45:05;12.95;;;3.90;;
45784;SDS011;31489;51.404;5.474;2023-07-30T04:47:31;9.50;;;3.60;;
45784;SDS011;31489;51.404;5.474;2023-07-30T04:49:57;12.35;;;3.10;;
45784;SDS011;31489;51.404;5.474;2023-07-30T04:52:23;15.63;;;3.58;;
45784;SDS011;31489;51.404;5.474;2023-07-30T04:54:48;11.35;;;3.40;;
45784;SDS011;31489;51.404;5.474;2023-07-30T04:57:14;9.88;;;4.20;;
45784;SDS011;31489;51.404;5.474;2023-07-30T04:59:40;11.40;;;3.35;;
45784;SDS011;31489;51.404;5.474;2023-07-30T05:02:05;10.05;;;3.70;;
45784;SDS011;31489;51.404;5.474;2023-07-30T05:04:32;14.68;;;3.35;;
45784;SDS011;31489;51.404;5.474;2023-07-30T05:06:57;15.95;;;3.78;;
45784;SDS011;31489;51.404;5.474;2023-07-30T05:09:23;14.52;;;3.55;;
45784;SDS011;31489;51.404;5.474;2023-07-30T05:11:49;14.40;;;3.58;;
45784;SDS011;31489;51.404;5.474;2023-07-30T05:14:14;16.05;;;3.65;;
45784;SDS011;31489;51.404;5.474;2023-07-30T05:16:40;13.38;;;3.65;;
45784;SDS011;31489;51.404;5.474;2023-07-30T05:19:06;10.55;;;3.47;;
45784;SDS011;31489;51.404;5.474;2023-07-30T05:21:31;16.67;;;4.32;;
45784;SDS011;31489;51.404;5.474;2023-07-30T05:23:57;13.07;;;3.28;;
45784;SDS011;31489;51.404;5.474;2023-07-30T05:26:23;16.50;;;3.47;;
45784;SDS011;31489;51.404;5.474;2023-07-30T05:28:48;11.80;;;3.08;;
45784;SDS011;31489;51.404;5.474;2023-07-30T05:31:14;18.92;;;3.65;;
45784;SDS011;31489;51.404;5.474;2023-07-30T05:33:40;14.23;;;3.83;;
45784;SDS011;31489;51.404;5.474;2023-07-30T05:36:05;14.88;;;4.13;;
45784;SDS011;31489;51.404;5.474;2023-07-30T05:38:31;15.68;;;3.55;;
45784;SDS011;31489;51.404;5.474;2023-07-30T05:40:57;13.57;;;3.92;;
45784;SDS011;31489;51.404;5.474;2023-07-30T05:43:22;11.05;;;3.65;;
45784;SDS011;31489;51.404;5.474;2023-07-30T05:45:48;15.75;;;3.17;;
45784;SDS011;31489;51.404;5.474;2023-07-30T05:48:14;13.75;;;3.42;;
45784;SDS011;31489;51.404;5.474;2023-07-30T05:50:39;12.90;;;3.67;;
45784;SDS011;31489;51.404;5.474;2023-07-30T05:53:05;12.68;;;3.47;;
45784;SDS011;31489;51.404;5.474;2023-07-30T05:55:31;15.68;;;3.28;;
45784;SDS011;31489;51.404;5.474;2023-07-30T05:57:56;15.70;;;3.72;;
45784;SDS011;31489;51.404;5.474;2023-07-30T06:00:23;19.15;;;3.97;;
45784;SDS011;31489;51.404;5.474;2023-07-30T06:02:49;11.20;;;3.47;;
45784;SDS011;31489;51.404;5.474;2023-07-30T06:05:14;17.30;;;3.40;;
45784;SDS011;31489;51.404;5.474;2023-07-30T06:07:40;14.68;;;3.70;;
45784;SDS011;31489;51.404;5.474;2023-07-30T06:10:09;18.10;;;4.30;;
45784;SDS011;31489;51.404;5.474;2023-07-30T06:12:35;17.05;;;4.20;;
45784;SDS011;31489;51.404;5.474;2023-07-30T06:15:00;14.93;;;3.95;;
45784;SDS011;31489;51.404;5.474;2023-07-30T06:17:26;19.02;;;4.65;;
45784;SDS011;31489;51.404;5.474;2023-07-30T06:19:51;18.35;;;4.53;;
45784;SDS011;31489;51.404;5.474;2023-07-30T06:22:17;20.38;;;4.32;;
45784;SDS011;31489;51.404;5.474;2023-07-30T06:24:43;13.63;;;3.92;;
45784;SDS011;31489;51.404;5.474;2023-07-30T06:27:09;19.48;;;4.13;;
45784;SDS011;31489;51.404;5.474;2023-07-30T06:29:35;12.52;;;3.63;;
45784;SDS011;31489;51.404;5.474;2023-07-30T06:32:01;17.20;;;4.22;;
45784;SDS011;31489;51.404;5.474;2023-07-30T06:34:27;16.67;;;4.10;;
45784;SDS011;31489;51.404;5.474;2023-07-30T06:36:52;22.83;;;3.78;;
45784;SDS011;31489;51.404;5.474;2023-07-30T06:39:18;15.30;;;3.80;;
45784;SDS011;31489;51.404;5.474;2023-07-30T06:41:44;19.48;;;4.03;;
45784;SDS011;31489;51.404;5.474;2023-07-30T06:44:09;17.92;;;3.58;;
45784;SDS011;31489;51.404;5.474;2023-07-30T06:46:35;17.15;;;3.63;;
45784;SDS011;31489;51.404;5.474;2023-07-30T06:49:01;18.25;;;3.50;;
45784;SDS011;31489;51.404;5.474;2023-07-30T06:51:26;20.50;;;3.97;;
45784;SDS011;31489;51.404;5.474;2023-07-30T06:53:52;21.92;;;4.22;;
45784;SDS011;31489;51.404;5.474;2023-07-30T06:56:18;16.35;;;4.10;;
45784;SDS011;31489;51.404;5.474;2023-07-30T06:58:43;12.52;;;3.15;;
45784;SDS011;31489;51.404;5.474;2023-07-30T07:01:09;11.85;;;3.13;;
45784;SDS011;31489;51.404;5.474;2023-07-30T07:03:35;14.95;;;3.60;;
45784;SDS011;31489;51.404;5.474;2023-07-30T07:06:00;13.85;;;3.67;;
45784;SDS011;31489;51.404;5.474;2023-07-30T07:08:26;14.63;;;3.35;;
45784;SDS011;31489;51.404;5.474;2023-07-30T07:10:52;16.95;;;3.20;;
45784;SDS011;31489;51.404;5.474;2023-07-30T07:13:18;11.70;;;3.00;;
45784;SDS011;31489;51.404;5.474;2023-07-30T07:15:44;15.93;;;3.05;;
45784;SDS011;31489;51.404;5.474;2023-07-30T07:18:10;22.27;;;4.88;;
45784;SDS011;31489;51.404;5.474;2023-07-30T07:20:36;17.85;;;3.80;;
45784;SDS011;31489;51.404;5.474;2023-07-30T07:23:02;12.32;;;3.60;;
45784;SDS011;31489;51.404;5.474;2023-07-30T07:25:28;19.88;;;3.80;;
45784;SDS011;31489;51.404;5.474;2023-07-30T07:27:54;15.40;;;3.47;;
45784;SDS011;31489;51.404;5.474;2023-07-30T07:30:20;16.85;;;3.92;;
45784;SDS011;31489;51.404;5.474;2023-07-30T07:32:45;15.13;;;3.78;;
45784;SDS011;31489;51.404;5.474;2023-07-30T07:35:15;15.88;;;3.78;;
45784;SDS011;31489;51.404;5.474;2023-07-30T07:37:41;14.20;;;2.90;;
45784;SDS011;31489;51.404;5.474;2023-07-30T07:40:07;12.15;;;3.53;;
45784;SDS011;31489;51.404;5.474;2023-07-30T07:42:34;12.00;;;2.95;;
45784;SDS011;31489;51.404;5.474;2023-07-30T07:45:00;17.95;;;4.18;;
45784;SDS011;31489;51.404;5.474;2023-07-30T07:47:26;15.60;;;3.75;;
45784;SDS011;31489;51.404;5.474;2023-07-30T07:49:51;21.13;;;3.92;;
45784;SDS011;31489;51.404;5.474;2023-07-30T07:52:17;15.90;;;3.30;;
45784;SDS011;31489;51.404;5.474;2023-07-30T07:54:44;12.40;;;3.95;;
45784;SDS011;31489;51.404;5.474;2023-07-30T07:57:10;15.30;;;3.28;;
45784;SDS011;31489;51.404;5.474;2023-07-30T07:59:36;15.52;;;3.47;;
45784;SDS011;31489;51.404;5.474;2023-07-30T08:02:02;12.77;;;3.22;;
45784;SDS011;31489;51.404;5.474;2023-07-30T08:04:27;17.15;;;3.75;;
45784;SDS011;31489;51.404;5.474;2023-07-30T08:06:56;19.42;;;3.50;;
45784;SDS011;31489;51.404;5.474;2023-07-30T08:09:25;20.52;;;4.20;;
45784;SDS011;31489;51.404;5.474;2023-07-30T08:11:50;15.18;;;3.20;;
45784;SDS011;31489;51.404;5.474;2023-07-30T08:14:16;14.60;;;3.15;;
45784;SDS011;31489;51.404;5.474;2023-07-30T08:16:42;16.73;;;3.35;;
45784;SDS011;31489;51.404;5.474;2023-07-30T08:19:07;14.98;;;3.50;;
45784;SDS011;31489;51.404;5.474;2023-07-30T08:21:33;14.70;;;3.08;;
45784;SDS011;31489;51.404;5.474;2023-07-30T08:23:59;11.43;;;3.55;;
45784;SDS011;31489;51.404;5.474;2023-07-30T08:26:24;14.95;;;3.22;;
45784;SDS011;31489;51.404;5.474;2023-07-30T08:28:50;15.77;;;3.35;;
45784;SDS011;31489;51.404;5.474;2023-07-30T08:31:16;17.38;;;3.42;;
45784;SDS011;31489;51.404;5.474;2023-07-30T08:33:41;15.43;;;3.75;;
45784;SDS011;31489;51.404;5.474;2023-07-30T08:36:07;14.15;;;3.05;;
45784;SDS011;31489;51.404;5.474;2023-07-30T08:38:33;16.17;;;3.75;;
45784;SDS011;31489;51.404;5.474;2023-07-30T08:40:58;16.35;;;3.30;;
45784;SDS011;31489;51.404;5.474;2023-07-30T08:43:24;13.18;;;3.45;;
45784;SDS011;31489;51.404;5.474;2023-07-30T08:45:53;15.05;;;3.90;;
45784;SDS011;31489;51.404;5.474;2023-07-30T08:48:19;15.15;;;3.00;;
45784;SDS011;31489;51.404;5.474;2023-07-30T08:50:44;14.52;;;3.28;;
45784;SDS011;31489;51.404;5.474;2023-07-30T08:53:17;11.00;;;3.00;;
45784;SDS011;31489;51.404;5.474;2023-07-30T08:55:46;10.23;;;3.22;;
45784;SDS011;31489;51.404;5.474;2023-07-30T08:58:12;13.82;;;3.03;;
45784;SDS011;31489;51.404;5.474;2023-07-30T09:00:44;11.05;;;3.20;;
45784;SDS011;31489;51.404;5.474;2023-07-30T09:03:15;11.85;;;3.17;;
45784;SDS011;31489;51.404;5.474;2023-07-30T09:05:42;9.68;;;2.72;;
45784;SDS011;31489;51.404;5.474;2023-07-30T09:08:08;15.80;;;3.17;;
45784;SDS011;31489;51.404;5.474;2023-07-30T09:10:35;11.02;;;2.95;;
45784;SDS011;31489;51.404;5.474;2023-07-30T09:13:01;12.82;;;3.13;;
45784;SDS011;31489;51.404;5.474;2023-07-30T09:18:04;9.20;;;2.72;;
45784;SDS011;31489;51.404;5.474;2023-07-30T09:20:38;7.13;;;2.60;;
45784;SDS011;31489;51.404;5.474;2023-07-30T09:23:08;10.80;;;3.20;;
45784;SDS011;31489;51.404;5.474;2023-07-30T09:25:35;9.52;;;2.67;;
45784;SDS011;31489;51.404;5.474;2023-07-30T09:28:05;11.45;;;3.13;;
45784;SDS011;31489;51.404;5.474;2023-07-30T09:30:31;10.57;;;2.60;;
45784;SDS011;31489;51.404;5.474;2023-07-30T09:33:01;12.27;;;2.55;;
45784;SDS011;31489;51.404;5.474;2023-07-30T09:35:27;12.18;;;2.75;;
45784;SDS011;31489;51.404;5.474;2023-07-30T09:37:59;8.25;;;2.60;;
45784;SDS011;31489;51.404;5.474;2023-07-30T09:40:36;11.48;;;2.95;;
45784;SDS011;31489;51.404;5.474;2023-07-30T09:43:04;8.80;;;2.60;;
45784;SDS011;31489;51.404;5.474;2023-07-30T09:45:32;8.05;;;2.13;;
45784;SDS011;31489;51.404;5.474;2023-07-30T09:48:06;14.57;;;2.90;;
45784;SDS011;31489;51.404;5.474;2023-07-30T09:50:33;12.50;;;2.97;;
45784;SDS011;31489;51.404;5.474;2023-07-30T09:53:02;11.52;;;2.67;;
45784;SDS011;31489;51.404;5.474;2023-07-30T09:55:29;12.13;;;3.30;;
45784;SDS011;31489;51.404;5.474;2023-07-30T09:57:55;8.65;;;2.50;;
45784;SDS011;31489;51.404;5.474;2023-07-30T10:00:21;8.98;;;2.70;;
45784;SDS011;31489;51.404;5.474;2023-07-30T10:02:47;9.15;;;2.78;;
45784;SDS011;31489;51.404;5.474;2023-07-30T10:05:15;8.77;;;2.65;;
45784;SDS011;31489;51.404;5.474;2023-07-30T10:07:55;10.32;;;2.75;;
45784;SDS011;31489;51.404;5.474;2023-07-30T10:10:25;7.25;;;2.60;;
45784;SDS011;31489;51.404;5.474;2023-07-30T10:12:55;5.75;;;2.50;;
45784;SDS011;31489;51.404;5.474;2023-07-30T10:15:27;9.48;;;2.22;;
45784;SDS011;31489;51.404;5.474;2023-07-30T10:17:52;7.47;;;2.22;;
45784;SDS011;31489;51.404;5.474;2023-07-30T10:20:24;8.80;;;2.20;;
45784;SDS011;31489;51.404;5.474;2023-07-30T10:22:52;11.10;;;2.45;;
45784;SDS011;31489;51.404;5.474;2023-07-30T10:25:30;8.50;;;2.53;;
45784;SDS011;31489;51.404;5.474;2023-07-30T10:28:11;9.80;;;2.50;;
45784;SDS011;31489;51.404;5.474;2023-07-30T10:30:57;7.72;;;1.77;;
45784;SDS011;31489;51.404;5.474;2023-07-30T10:38:35;6.18;;;2.00;;
45784;SDS011;31489;51.404;5.474;2023-07-30T10:41:06;8.63;;;1.90;;
45784;SDS011;31489;51.404;5.474;2023-07-30T10:43:48;7.47;;;2.00;;
45784;SDS011;31489;51.404;5.474;2023-07-30T10:46:16;5.50;;;2.08;;
45784;SDS011;31489;51.404;5.474;2023-07-30T10:48:44;7.50;;;2.00;;
45784;SDS011;31489;51.404;5.474;2023-07-30T10:51:15;6.47;;;1.95;;
45784;SDS011;31489;51.404;5.474;2023-07-30T10:53:42;6.78;;;2.03;;
45784;SDS011;31489;51.404;5.474;2023-07-30T10:56:10;6.18;;;1.70;;
45784;SDS011;31489;51.404;5.474;2023-07-30T10:58:36;6.10;;;2.00;;
45784;SDS011;31489;51.404;5.474;2023-07-30T11:01:03;4.93;;;1.60;;
45784;SDS011;31489;51.404;5.474;2023-07-30T11:03:37;7.30;;;2.03;;
45784;SDS011;31489;51.404;5.474;2023-07-30T11:06:03;7.05;;;2.00;;
45784;SDS011;31489;51.404;5.474;2023-07-30T11:08:33;5.85;;;2.17;;
45784;SDS011;31489;51.404;5.474;2023-07-30T11:11:04;5.90;;;1.52;;
45784;SDS011;31489;51.404;5.474;2023-07-30T11:13:40;7.25;;;1.60;;
45784;SDS011;31489;51.404;5.474;2023-07-30T11:16:13;6.32;;;1.70;;
45784;SDS011;31489;51.404;5.474;2023-07-30T11:18:41;4.45;;;1.48;;
45784;SDS011;31489;51.404;5.474;2023-07-30T11:21:08;5.35;;;1.77;;
45784;SDS011;31489;51.404;5.474;2023-07-30T11:23:36;3.72;;;1.60;;
45784;SDS011;31489;51.404;5.474;2023-07-30T11:26:04;5.65;;;1.73;;
45784;SDS011;31489;51.404;5.474;2023-07-30T11:28:35;5.78;;;1.83;;
45784;SDS011;31489;51.404;5.474;2023-07-30T11:31:03;5.18;;;1.67;;
45784;SDS011;31489;51.404;5.474;2023-07-30T11:33:44;3.67;;;1.42;;
45784;SDS011;31489;51.404;5.474;2023-07-30T11:36:18;4.00;;;1.70;;
45784;SDS011;31489;51.404;5.474;2023-07-30T11:38:55;3.85;;;1.73;;
45784;SDS011;31489;51.404;5.474;2023-07-30T11:41:27;5.80;;;1.83;;
45784;SDS011;31489;51.404;5.474;2023-07-30T11:43:53;4.72;;;1.65;;
45784;SDS011;31489;51.404;5.474;2023-07-30T11:46:20;5.55;;;1.88;;
45784;SDS011;31489;51.404;5.474;2023-07-30T11:48:50;5.38;;;1.58;;
45784;SDS011;31489;51.404;5.474;2023-07-30T11:51:28;4.18;;;1.55;;
45784;SDS011;31489;51.404;5.474;2023-07-30T11:53:55;7.47;;;1.95;;
45784;SDS011;31489;51.404;5.474;2023-07-30T11:56:26;6.05;;;1.52;;
45784;SDS011;31489;51.404;5.474;2023-07-30T11:58:57;4.88;;;2.03;;
45784;SDS011;31489;51.404;5.474;2023-07-30T12:01:30;4.95;;;1.80;;
45784;SDS011;31489;51.404;5.474;2023-07-30T12:03:59;5.25;;;1.65;;
45784;SDS011;31489;51.404;5.474;2023-07-30T12:06:44;5.28;;;1.67;;
45784;SDS011;31489;51.404;5.474;2023-07-30T12:14:19;3.17;;;1.45;;
45784;SDS011;31489;51.404;5.474;2023-07-30T12:16:47;5.95;;;1.60;;
45784;SDS011;31489;51.404;5.474;2023-07-30T12:19:13;4.55;;;1.58;;
45784;SDS011;31489;51.404;5.474;2023-07-30T12:21:39;5.22;;;1.63;;
45784;SDS011;31489;51.404;5.474;2023-07-30T12:24:04;7.38;;;1.60;;
45784;SDS011;31489;51.404;5.474;2023-07-30T12:26:30;5.15;;;1.65;;
45784;SDS011;31489;51.404;5.474;2023-07-30T12:28:56;5.85;;;1.42;;
45784;SDS011;31489;51.404;5.474;2023-07-30T12:31:22;4.25;;;1.73;;
45784;SDS011;31489;51.404;5.474;2023-07-30T12:33:48;4.95;;;1.60;;
45784;SDS011;31489;51.404;5.474;2023-07-30T12:36:16;7.30;;;1.88;;
45784;SDS011;31489;51.404;5.474;2023-07-30T12:38:41;5.22;;;1.58;;
45784;SDS011;31489;51.404;5.474;2023-07-30T12:41:07;6.65;;;1.98;;
45784;SDS011;31489;51.404;5.474;2023-07-30T12:43:33;7.97;;;2.13;;
45784;SDS011;31489;51.404;5.474;2023-07-30T12:45:59;6.13;;;2.10;;
45784;SDS011;31489;51.404;5.474;2023-07-30T12:48:24;6.00;;;1.55;;
45784;SDS011;31489;51.404;5.474;2023-07-30T12:50:50;5.53;;;1.63;;
45784;SDS011;31489;51.404;5.474;2023-07-30T12:53:16;5.20;;;1.70;;
45784;SDS011;31489;51.404;5.474;2023-07-30T12:55:41;3.28;;;1.10;;
45784;SDS011;31489;51.404;5.474;2023-07-30T12:58:07;3.28;;;1.30;;
45784;SDS011;31489;51.404;5.474;2023-07-30T13:00:33;3.80;;;1.38;;
45784;SDS011;31489;51.404;5.474;2023-07-30T13:02:59;2.72;;;1.20;;
45784;SDS011;31489;51.404;5.474;2023-07-30T13:05:28;5.10;;;1.30;;
45784;SDS011;31489;51.404;5.474;2023-07-30T13:07:54;3.65;;;1.10;;
45784;SDS011;31489;51.404;5.474;2023-07-30T13:10:20;3.45;;;1.25;;
45784;SDS011;31489;51.404;5.474;2023-07-30T13:12:45;5.68;;;1.55;;
45784;SDS011;31489;51.404;5.474;2023-07-30T13:15:11;5.43;;;1.55;;
45784;SDS011;31489;51.404;5.474;2023-07-30T13:17:37;4.88;;;1.33;;
45784;SDS011;31489;51.404;5.474;2023-07-30T13:20:03;6.15;;;1.70;;
45784;SDS011;31489;51.404;5.474;2023-07-30T13:22:30;5.18;;;1.40;;
45784;SDS011;31489;51.404;5.474;2023-07-30T13:24:56;4.95;;;1.50;;
45784;SDS011;31489;51.404;5.474;2023-07-30T13:27:21;6.22;;;1.33;;
45784;SDS011;31489;51.404;5.474;2023-07-30T13:29:47;4.38;;;1.55;;
45784;SDS011;31489;51.404;5.474;2023-07-30T13:32:14;5.03;;;1.63;;
45784;SDS011;31489;51.404;5.474;2023-07-30T13:34:40;5.78;;;1.40;;
45784;SDS011;31489;51.404;5.474;2023-07-30T13:37:06;3.83;;;1.30;;
45784;SDS011;31489;51.404;5.474;2023-07-30T13:39:31;4.93;;;1.35;;
45784;SDS011;31489;51.404;5.474;2023-07-30T13:41:57;2.88;;;1.30;;
45784;SDS011;31489;51.404;5.474;2023-07-30T13:44:23;4.63;;;1.48;;
45784;SDS011;31489;51.404;5.474;2023-07-30T13:46:48;4.10;;;1.40;;
45784;SDS011;31489;51.404;5.474;2023-07-30T13:49:15;2.90;;;1.70;;
45784;SDS011;31489;51.404;5.474;2023-07-30T13:51:41;4.05;;;1.45;;
45784;SDS011;31489;51.404;5.474;2023-07-30T13:54:06;4.25;;;1.63;;
45784;SDS011;31489;51.404;5.474;2023-07-30T13:56:33;4.68;;;1.42;;
45784;SDS011;31489;51.404;5.474;2023-07-30T13:58:59;4.15;;;1.50;;
45784;SDS011;31489;51.404;5.474;2023-07-30T14:01:25;5.72;;;1.52;;
45784;SDS011;31489;51.404;5.474;2023-07-30T14:03:58;3.55;;;1.23;;
45784;SDS011;31489;51.404;5.474;2023-07-30T14:06:26;6.13;;;1.52;;
45784;SDS011;31489;51.404;5.474;2023-07-30T14:08:58;2.83;;;1.42;;
45784;SDS011;31489;51.404;5.474;2023-07-30T14:11:26;10.15;;;1.77;;
45784;SDS011;31489;51.404;5.474;2023-07-30T14:13:55;3.72;;;1.30;;
45784;SDS011;31489;51.404;5.474;2023-07-30T14:16:21;3.35;;;1.50;;
45784;SDS011;31489;51.404;5.474;2023-07-30T14:18:47;4.05;;;1.48;;
45784;SDS011;31489;51.404;5.474;2023-07-30T14:21:13;7.22;;;1.63;;
45784;SDS011;31489;51.404;5.474;2023-07-30T14:23:38;4.57;;;1.50;;
45784;SDS011;31489;51.404;5.474;2023-07-30T14:26:04;4.28;;;1.50;;
45784;SDS011;31489;51.404;5.474;2023-07-30T14:28:30;5.20;;;1.55;;
45784;SDS011;31489;51.404;5.474;2023-07-30T14:30:56;3.67;;;1.20;;
45784;SDS011;31489;51.404;5.474;2023-07-30T14:33:21;4.78;;;1.48;;
45784;SDS011;31489;51.404;5.474;2023-07-30T14:35:47;4.18;;;1.40;;
45784;SDS011;31489;51.404;5.474;2023-07-30T14:38:13;5.38;;;1.55;;
45784;SDS011;31489;51.404;5.474;2023-07-30T14:40:39;5.57;;;1.67;;
45784;SDS011;31489;51.404;5.474;2023-07-30T14:43:04;4.88;;;1.67;;
45784;SDS011;31489;51.404;5.474;2023-07-30T14:45:30;4.88;;;1.92;;
45784;SDS011;31489;51.404;5.474;2023-07-30T14:47:56;3.75;;;1.63;;
45784;SDS011;31489;51.404;5.474;2023-07-30T14:50:22;4.90;;;1.85;;
45784;SDS011;31489;51.404;5.474;2023-07-30T14:52:48;2.78;;;1.50;;
45784;SDS011;31489;51.404;5.474;2023-07-30T14:55:14;4.78;;;1.48;;